Time;durP1;ratioP1;P1;durP2;ratioP2;P2;SDS_P1;SDS_P2;PMS_P1;PMS_P2;Temp;Humidity;BMP_temperature;BMP_pressure;BME280_temperature;BME280_humidity;BME280_pressure;Samples;Min_cycle;Max_cycle;Signal;HPM_P1;HPM_P2
2021/07/29 00:00:57;;;;;;;6.05;4.53;;;18.60;99.90;;;;;;5052650;28;20049;-70
2021/07/29 00:03:23;;;;;;;4.43;3.70;;;18.70;99.90;;;;;;5053662;28;20045;-71
2021/07/29 00:05:50;;;;;;;6.30;4.25;;;18.60;99.90;;;;;;5053576;28;20103;-70
2021/07/29 00:08:18;;;;;;;3.72;3.33;;;18.60;99.90;;;;;;5052859;28;20073;-71
2021/07/29 00:10:47;;;;;;;5.05;4.32;;;18.70;99.90;;;;;;5052223;28;20427;-71
2021/07/29 00:13:17;;;;;;;4.82;4.03;;;18.80;99.90;;;;;;5053430;28;20521;-73
2021/07/29 00:15:44;;;;;;;4.55;4.00;;;18.70;99.90;;;;;;5053788;28;20508;-71
2021/07/29 00:20:58;;;;;;;5.00;3.47;;;18.70;99.90;;;;;;5048509;28;20087;-71
2021/07/29 00:23:25;;;;;;;4.93;4.28;;;18.70;99.90;;;;;;5034620;28;20080;-71
2021/07/29 00:25:53;;;;;;;6.05;4.47;;;18.70;99.90;;;;;;5034560;28;20050;-71
2021/07/29 00:28:19;;;;;;;5.20;4.07;;;18.70;99.90;;;;;;5052910;28;20045;-71
2021/07/29 00:30:46;;;;;;;6.18;3.83;;;18.60;99.90;;;;;;5054293;28;20519;-71
2021/07/29 00:33:12;;;;;;;7.70;4.93;;;18.60;99.90;;;;;;5054899;28;20037;-71
2021/07/29 00:35:39;;;;;;;6.40;4.35;;;18.50;99.90;;;;;;5045487;28;20041;-71
2021/07/29 00:38:06;;;;;;;4.82;3.67;;;18.40;99.90;;;;;;5033391;28;20417;-70
2021/07/29 00:40:32;;;;;;;6.47;3.90;;;18.40;99.90;;;;;;5033118;28;20099;-71
2021/07/29 00:43:01;;;;;;;5.25;3.88;;;18.40;99.90;;;;;;5033057;28;20421;-71
2021/07/29 00:45:27;;;;;;;5.50;4.43;;;18.30;99.90;;;;;;5032116;28;20132;-70
2021/07/29 00:47:55;;;;;;;5.50;5.00;;;18.30;99.90;;;;;;5031867;28;20054;-71
2021/07/29 00:50:22;;;;;;;5.78;4.53;;;18.30;99.90;;;;;;5031107;28;20045;-71
2021/07/29 00:52:48;;;;;;;5.25;4.10;;;18.30;99.90;;;;;;5031624;28;20465;-71
2021/07/29 00:55:18;;;;;;;4.55;3.75;;;18.30;99.90;;;;;;5031737;28;20046;-69
2021/07/29 00:57:45;;;;;;;7.10;4.05;;;18.30;99.90;;;;;;5032007;28;20049;-70
2021/07/29 01:00:14;;;;;;;4.60;4.15;;;18.30;99.90;;;;;;5032202;28;20053;-72
2021/07/29 01:02:41;;;;;;;6.00;4.53;;;18.30;99.90;;;;;;5033158;28;20053;-73
2021/07/29 01:05:11;;;;;;;4.55;4.15;;;18.20;99.90;;;;;;5038865;28;20562;-71
2021/07/29 01:07:37;;;;;;;4.78;4.07;;;18.20;99.90;;;;;;5057309;28;20099;-72
2021/07/29 01:10:05;;;;;;;5.28;4.07;;;18.10;99.90;;;;;;5056010;28;20091;-71
2021/07/29 01:12:33;;;;;;;5.15;4.03;;;18.10;99.90;;;;;;5042157;28;20056;-74
2021/07/29 01:14:59;;;;;;;7.45;4.47;;;18.00;99.90;;;;;;5036956;28;20049;-73
2021/07/29 01:17:33;;;;;;;5.88;4.78;;;18.00;99.90;;;;;;5036849;28;20096;-71
2021/07/29 01:20:00;;;;;;;4.53;4.05;;;17.90;99.90;;;;;;5035964;28;20049;-71
2021/07/29 01:22:35;;;;;;;6.85;4.30;;;17.90;99.90;;;;;;5037108;28;20132;-71
2021/07/29 01:25:03;;;;;;;5.95;4.43;;;17.90;99.90;;;;;;5036820;28;20084;-72
2021/07/29 01:27:32;;;;;;;6.68;5.35;;;17.90;99.90;;;;;;5054835;28;20052;-73
2021/07/29 01:30:01;;;;;;;6.63;4.97;;;17.90;99.90;;;;;;5056162;28;20504;-71
2021/07/29 01:32:27;;;;;;;5.47;4.32;;;17.90;99.90;;;;;;5056575;28;20045;-71
2021/07/29 01:34:56;;;;;;;5.57;3.95;;;17.80;99.90;;;;;;5054352;28;20523;-72
2021/07/29 01:37:22;;;;;;;6.47;4.55;;;17.90;99.90;;;;;;5054688;28;20497;-71
2021/07/29 01:39:50;;;;;;;9.90;4.43;;;17.80;99.90;;;;;;5048994;28;20123;-72
2021/07/29 01:42:17;;;;;;;6.28;4.50;;;17.80;99.90;;;;;;5052339;28;20049;-71
2021/07/29 01:44:43;;;;;;;6.15;4.60;;;17.90;99.90;;;;;;5054733;28;20103;-70
2021/07/29 01:47:10;;;;;;;4.68;3.97;;;17.80;99.90;;;;;;5038318;28;20464;-71
2021/07/29 01:49:37;;;;;;;4.78;3.75;;;17.80;99.90;;;;;;5035140;28;20406;-71
2021/07/29 01:52:04;;;;;;;4.90;4.15;;;17.80;99.90;;;;;;5035870;28;20099;-71
2021/07/29 01:54:30;;;;;;;8.05;5.47;;;17.70;99.90;;;;;;5034251;28;20096;-70
2021/07/29 01:56:58;;;;;;;5.20;4.40;;;17.70;99.90;;;;;;5055512;28;20049;-71
2021/07/29 01:59:25;;;;;;;5.60;4.10;;;17.60;99.90;;;;;;5055610;28;20516;-73
2021/07/29 02:01:51;;;;;;;4.45;3.88;;;17.50;99.90;;;;;;5055484;28;20041;-72
2021/07/29 02:04:18;;;;;;;5.00;3.78;;;17.50;99.90;;;;;;5056130;28;20049;-74
2021/07/29 02:06:45;;;;;;;6.80;4.38;;;17.40;99.90;;;;;;5055863;28;20588;-71
2021/07/29 02:09:11;;;;;;;4.68;4.20;;;17.40;99.90;;;;;;5055085;28;20493;-72
2021/07/29 02:11:40;;;;;;;5.25;4.30;;;17.30;99.90;;;;;;5055692;28;20045;-71
2021/07/29 02:14:08;;;;;;;5.22;4.60;;;17.30;99.90;;;;;;5054060;28;20048;-71
2021/07/29 02:16:35;;;;;;;6.60;4.45;;;17.30;99.90;;;;;;5054195;28;20436;-71
2021/07/29 02:19:02;;;;;;;4.47;3.70;;;17.20;99.90;;;;;;5053620;28;20091;-71
2021/07/29 02:21:28;;;;;;;5.88;4.93;;;17.30;99.90;;;;;;5054127;28;20101;-71
2021/07/29 02:23:55;;;;;;;5.70;3.72;;;17.20;99.90;;;;;;5037114;28;20399;-70
2021/07/29 02:26:21;;;;;;;5.95;4.45;;;17.10;99.90;;;;;;5035914;28;20049;-76
2021/07/29 02:28:51;;;;;;;4.93;4.10;;;17.10;99.90;;;;;;5034768;28;20100;-72
2021/07/29 02:31:19;;;;;;;5.50;3.63;;;17.00;99.90;;;;;;5035811;28;20046;-73
2021/07/29 02:33:45;;;;;;;5.63;4.03;;;17.00;99.90;;;;;;5035939;28;20053;-71
2021/07/29 02:36:13;;;;;;;4.97;4.13;;;17.00;99.90;;;;;;5052308;28;20045;-71
2021/07/29 02:38:40;;;;;;;5.03;4.50;;;17.00;99.90;;;;;;5036636;28;20518;-71
2021/07/29 02:41:06;;;;;;;5.70;4.40;;;17.00;99.90;;;;;;5042604;28;20049;-72
2021/07/29 02:43:33;;;;;;;8.48;5.68;;;16.90;99.90;;;;;;5055921;28;20456;-71
2021/07/29 02:45:59;;;;;;;6.40;4.47;;;16.90;99.90;;;;;;5055781;28;20045;-70
2021/07/29 02:48:27;;;;;;;6.05;4.25;;;16.80;99.90;;;;;;5055208;28;20091;-71
2021/07/29 02:50:55;;;;;;;6.63;3.88;;;16.80;99.90;;;;;;5048314;28;20095;-71
2021/07/29 02:53:22;;;;;;;5.88;4.35;;;16.80;99.90;;;;;;5050487;28;20045;-74
2021/07/29 02:55:49;;;;;;;5.38;3.95;;;16.90;99.90;;;;;;5052670;28;20041;-70
2021/07/29 02:58:15;;;;;;;6.07;4.00;;;16.80;99.90;;;;;;5043049;28;20053;-70
2021/07/29 03:00:42;;;;;;;6.43;3.67;;;16.80;99.90;;;;;;5033402;28;20053;-70
2021/07/29 03:03:09;;;;;;;6.60;3.97;;;16.80;99.90;;;;;;5033343;28;20516;-71
2021/07/29 03:05:36;;;;;;;5.43;4.82;;;16.80;99.90;;;;;;5033838;28;20803;-72
2021/07/29 03:08:06;;;;;;;5.28;4.60;;;16.80;99.90;;;;;;5042069;28;20045;-72
2021/07/29 03:10:33;;;;;;;4.22;3.67;;;16.80;99.90;;;;;;5055531;28;20463;-72
2021/07/29 03:13:01;;;;;;;5.15;3.80;;;16.80;99.90;;;;;;5056348;28;20045;-72
2021/07/29 03:15:30;;;;;;;6.20;3.55;;;16.70;99.90;;;;;;5056236;28;20073;-72
2021/07/29 03:17:57;;;;;;;5.00;3.72;;;16.80;99.90;;;;;;5056685;28;20071;-72
2021/07/29 03:20:23;;;;;;;6.88;4.57;;;16.70;99.90;;;;;;5043557;28;20043;-73
2021/07/29 03:22:51;;;;;;;4.93;4.05;;;16.70;99.90;;;;;;5036046;28;20046;-72
2021/07/29 03:25:18;;;;;;;5.38;4.40;;;16.80;99.90;;;;;;5036252;28;20049;-72
2021/07/29 03:27:44;;;;;;;4.38;3.55;;;16.80;99.90;;;;;;5035547;28;20046;-70
2021/07/29 03:30:13;;;;;;;5.10;3.90;;;16.70;99.90;;;;;;5035273;28;20502;-71
2021/07/29 03:32:40;;;;;;;4.63;3.80;;;16.70;99.90;;;;;;5035791;28;20132;-71
2021/07/29 03:35:07;;;;;;;4.32;3.90;;;16.70;99.90;;;;;;5044777;28;20091;-70
2021/07/29 03:37:34;;;;;;;5.55;3.80;;;16.70;99.90;;;;;;5054286;28;20079;-71
2021/07/29 03:40:04;;;;;;;5.18;3.95;;;16.60;99.90;;;;;;5039469;28;20682;-68
2021/07/29 03:42:32;;;;;;;7.00;4.43;;;16.70;99.90;;;;;;5043530;28;20180;-72
2021/07/29 03:45:00;;;;;;;4.75;4.25;;;16.70;99.90;;;;;;5042006;28;20045;-73
2021/07/29 03:47:27;;;;;;;5.65;3.83;;;16.60;99.90;;;;;;5034590;28;20049;-68
2021/07/29 03:49:54;;;;;;;4.68;3.97;;;16.70;99.90;;;;;;5051741;28;20045;-72
2021/07/29 03:52:21;;;;;;;5.07;4.55;;;16.80;99.90;;;;;;5039155;28;20045;-74
2021/07/29 03:54:49;;;;;;;5.10;4.05;;;16.80;99.90;;;;;;5032471;28;20045;-73
2021/07/29 03:57:18;;;;;;;5.47;4.28;;;16.80;99.90;;;;;;5032407;28;20421;-72
2021/07/29 03:59:45;;;;;;;5.95;3.85;;;16.90;99.90;;;;;;5031452;28;20549;-73
2021/07/29 04:02:11;;;;;;;4.47;3.67;;;16.90;99.90;;;;;;5041951;28;20099;-73
2021/07/29 04:04:39;;;;;;;5.32;4.30;;;17.00;99.90;;;;;;5038645;28;20505;-72
2021/07/29 04:07:06;;;;;;;5.15;4.25;;;17.00;99.90;;;;;;5031981;28;20065;-73
2021/07/29 04:09:32;;;;;;;5.80;3.75;;;17.00;99.90;;;;;;5032075;28;20037;-69
2021/07/29 04:12:00;;;;;;;3.97;3.50;;;17.10;99.90;;;;;;5032847;28;20045;-71
2021/07/29 04:14:29;;;;;;;4.82;3.40;;;17.20;99.90;;;;;;5034748;28;20470;-73
2021/07/29 04:16:56;;;;;;;4.30;3.78;;;17.20;99.90;;;;;;5032157;28;20041;-70
2021/07/29 04:19:23;;;;;;;5.22;3.88;;;17.30;99.90;;;;;;5040614;28;20512;-69
2021/07/29 04:21:51;;;;;;;5.53;3.22;;;17.30;99.90;;;;;;5052543;28;20049;-70
2021/07/29 04:24:22;;;;;;;5.85;3.42;;;17.40;99.90;;;;;;5052697;28;20448;-73
2021/07/29 04:27:01;;;;;;;4.32;3.50;;;17.50;99.90;;;;;;5055455;28;20131;-73
2021/07/29 04:29:31;;;;;;;4.53;3.80;;;17.50;99.90;;;;;;5055570;28;20045;-69
2021/07/29 04:31:59;;;;;;;3.90;3.38;;;17.60;99.90;;;;;;5048839;28;20079;-69
2021/07/29 04:34:26;;;;;;;4.90;3.70;;;17.60;99.90;;;;;;5049077;28;20490;-69
2021/07/29 04:36:53;;;;;;;9.15;6.45;;;17.60;99.90;;;;;;5031845;28;20560;-70
2021/07/29 04:39:23;;;;;;;7.93;4.38;;;17.60;99.90;;;;;;5031497;28;20072;-70
2021/07/29 04:41:51;;;;;;;5.45;3.50;;;17.70;99.90;;;;;;5036235;28;20052;-73
2021/07/29 04:44:18;;;;;;;6.25;4.28;;;17.70;99.90;;;;;;5043380;28;20056;-67
2021/07/29 04:46:47;;;;;;;14.75;8.57;;;17.70;99.90;;;;;;5052914;28;20052;-71
2021/07/29 04:49:18;;;;;;;4.10;3.70;;;17.80;99.90;;;;;;5035625;28;20494;-72
2021/07/29 04:51:46;;;;;;;4.65;3.67;;;17.90;99.90;;;;;;5041333;28;20412;-69
2021/07/29 04:54:13;;;;;;;4.80;3.78;;;18.00;99.90;;;;;;5042378;28;20136;-68
2021/07/29 04:56:40;;;;;;;3.75;3.40;;;18.10;99.90;;;;;;5033179;28;20489;-72
2021/07/29 04:59:07;;;;;;;4.32;3.35;;;18.10;99.90;;;;;;5031171;28;20482;-71
2021/07/29 05:01:37;;;;;;;4.55;3.63;;;18.10;99.90;;;;;;5033071;28;20080;-71
2021/07/29 05:04:06;;;;;;;4.68;3.53;;;18.10;99.90;;;;;;5044301;28;20563;-72
2021/07/29 05:06:35;;;;;;;4.35;3.92;;;18.10;99.90;;;;;;5034286;28;20049;-71
2021/07/29 05:09:01;;;;;;;3.40;3.00;;;18.10;99.90;;;;;;5034693;28;20060;-68
2021/07/29 05:11:28;;;;;;;6.20;3.45;;;18.20;99.90;;;;;;5032776;28;20494;-66
2021/07/29 05:13:54;;;;;;;3.03;2.78;;;18.20;99.90;;;;;;5033430;28;20068;-67
2021/07/29 05:16:21;;;;;;;5.25;3.17;;;18.30;99.90;;;;;;5033128;28;20099;-67
2021/07/29 05:18:48;;;;;;;4.85;2.95;;;18.40;99.90;;;;;;5045915;28;20072;-66
2021/07/29 05:21:16;;;;;;;3.67;3.03;;;18.30;99.90;;;;;;5033730;28;20107;-73
2021/07/29 05:23:43;;;;;;;3.78;3.22;;;18.40;99.90;;;;;;5042715;28;20140;-68
2021/07/29 05:26:15;;;;;;;9.30;3.65;;;18.40;99.90;;;;;;5035443;28;20045;-69
2021/07/29 05:28:42;;;;;;;5.43;2.92;;;18.40;99.90;;;;;;5032164;28;20046;-68
2021/07/29 05:31:10;;;;;;;3.03;2.72;;;18.40;99.90;;;;;;5047846;28;20059;-68
2021/07/29 05:33:37;;;;;;;4.15;3.10;;;18.50;99.90;;;;;;5047730;28;20048;-70
2021/07/29 05:36:04;;;;;;;5.85;5.00;;;18.40;99.90;;;;;;5047761;28;20047;-69
2021/07/29 05:38:32;;;;;;;3.75;2.95;;;18.50;99.90;;;;;;5040125;28;20478;-70
2021/07/29 05:41:03;;;;;;;3.30;2.55;;;18.50;99.90;;;;;;5035499;28;20045;-73
2021/07/29 05:43:30;;;;;;;3.60;3.08;;;18.50;99.90;;;;;;5035662;28;20068;-72
2021/07/29 05:45:57;;;;;;;3.60;3.13;;;18.50;99.90;;;;;;5038411;28;20056;-71
2021/07/29 05:48:24;;;;;;;4.03;2.78;;;18.50;99.90;;;;;;5041114;28;20504;-71
2021/07/29 05:50:56;;;;;;;3.47;2.90;;;18.50;99.90;;;;;;5033307;28;20053;-72
2021/07/29 05:53:23;;;;;;;5.45;3.17;;;18.60;99.90;;;;;;5035152;28;20521;-74
2021/07/29 05:55:52;;;;;;;3.70;2.80;;;18.70;99.90;;;;;;5040538;28;20046;-69
2021/07/29 05:58:19;;;;;;;6.45;3.30;;;18.90;99.90;;;;;;5034238;28;20046;-72
2021/07/29 06:00:46;;;;;;;5.57;3.53;;;19.10;99.90;;;;;;5034243;28;20060;-74
2021/07/29 06:03:12;;;;;;;5.18;4.35;;;19.40;99.90;;;;;;5035278;28;20075;-67
2021/07/29 06:05:39;;;;;;;2.67;2.47;;;19.60;99.90;;;;;;5046622;28;20175;-67
2021/07/29 06:08:06;;;;;;;3.65;3.08;;;19.70;99.90;;;;;;5037442;28;20107;-67
2021/07/29 06:10:33;;;;;;;3.22;2.70;;;19.60;99.90;;;;;;5033601;28;20049;-67
2021/07/29 06:13:01;;;;;;;7.25;4.80;;;19.80;99.90;;;;;;5053985;28;20052;-69
2021/07/29 06:15:28;;;;;;;6.30;3.85;;;19.80;99.90;;;;;;5053796;28;20179;-68
2021/07/29 06:17:57;;;;;;;5.38;2.95;;;20.00;99.90;;;;;;5053365;28;20045;-72
2021/07/29 06:20:24;;;;;;;2.80;2.55;;;20.10;99.90;;;;;;5050826;28;20045;-69
2021/07/29 06:22:51;;;;;;;2.90;2.65;;;20.30;99.90;;;;;;5033935;28;20405;-71
2021/07/29 06:25:18;;;;;;;4.20;3.08;;;20.60;99.90;;;;;;5050388;28;20049;-70
2021/07/29 06:27:47;;;;;;;3.25;2.75;;;20.60;99.90;;;;;;5053918;28;20045;-68
2021/07/29 06:30:15;;;;;;;4.20;2.53;;;20.70;99.90;;;;;;5053073;28;20044;-68
2021/07/29 06:32:42;;;;;;;6.80;4.50;;;21.00;99.90;;;;;;5040406;28;20111;-68
2021/07/29 06:35:10;;;;;;;3.58;2.85;;;21.40;99.90;;;;;;5041999;28;20057;-67
2021/07/29 06:37:37;;;;;;;3.72;2.97;;;21.30;99.90;;;;;;5046661;28;20417;-71
2021/07/29 06:40:04;;;;;;;2.53;1.80;;;21.40;99.90;;;;;;5047417;28;20053;-68
2021/07/29 06:42:31;;;;;;;3.38;3.08;;;21.80;99.90;;;;;;5043224;28;20045;-66
2021/07/29 06:44:58;;;;;;;7.05;3.15;;;22.00;99.90;;;;;;5042477;28;20049;-69
2021/07/29 06:47:27;;;;;;;3.33;2.83;;;22.40;99.90;;;;;;5049143;28;20477;-68
2021/07/29 06:49:54;;;;;;;4.03;2.42;;;22.30;99.90;;;;;;5044892;28;20544;-68
2021/07/29 06:52:20;;;;;;;6.00;2.95;;;22.20;99.90;;;;;;5038081;28;20041;-68
2021/07/29 06:54:47;;;;;;;10.02;5.15;;;22.50;99.90;;;;;;5041982;28;20064;-69
2021/07/29 06:57:14;;;;;;;3.78;2.95;;;23.00;99.90;;;;;;5044327;28;20045;-66
2021/07/29 06:59:40;;;;;;;2.53;2.33;;;22.70;99.90;;;;;;5044770;28;20103;-68
2021/07/29 07:02:07;;;;;;;4.10;2.60;;;22.80;99.90;;;;;;5032508;28;20054;-69
2021/07/29 07:04:35;;;;;;;3.20;2.47;;;22.70;99.90;;;;;;5047377;28;20119;-68
2021/07/29 07:07:02;;;;;;;4.85;2.72;;;22.80;99.90;;;;;;5052456;28;20443;-66
2021/07/29 07:09:30;;;;;;;3.70;2.30;;;23.10;99.90;;;;;;5032558;28;20053;-70
2021/07/29 07:11:57;;;;;;;3.95;2.78;;;23.00;99.90;;;;;;5033263;28;20052;-67
2021/07/29 07:14:24;;;;;;;2.72;2.10;;;22.80;99.90;;;;;;5045374;28;20045;-70
2021/07/29 07:16:51;;;;;;;4.32;2.40;;;23.00;99.90;;;;;;5033190;28;20564;-66
2021/07/29 07:19:17;;;;;;;3.05;2.42;;;23.30;99.90;;;;;;5040458;28;20098;-67
2021/07/29 07:21:45;;;;;;;2.40;2.20;;;23.30;99.90;;;;;;5033702;28;20517;-67
2021/07/29 07:24:12;;;;;;;2.95;2.40;;;23.40;99.90;;;;;;5032863;28;20100;-67
2021/07/29 07:26:39;;;;;;;3.55;2.90;;;23.70;99.90;;;;;;5032742;28;20197;-67
2021/07/29 07:29:05;;;;;;;4.43;2.42;;;23.80;99.90;;;;;;5032281;28;20482;-67
2021/07/29 07:31:32;;;;;;;3.90;2.20;;;23.80;99.90;;;;;;5038459;28;20037;-66
2021/07/29 07:34:00;;;;;;;2.55;2.22;;;23.80;99.90;;;;;;5036487;28;20045;-66
2021/07/29 07:36:27;;;;;;;8.73;3.15;;;24.00;99.90;;;;;;5052427;28;20240;-66
2021/07/29 07:38:55;;;;;;;2.83;2.47;;;24.30;99.60;;;;;;5051436;28;20087;-68
2021/07/29 07:41:22;;;;;;;2.38;2.17;;;24.60;97.60;;;;;;5052288;28;20049;-67
2021/07/29 07:43:49;;;;;;;4.18;2.08;;;24.00;98.40;;;;;;5052403;28;20114;-68
2021/07/29 07:46:15;;;;;;;3.22;2.28;;;24.30;96.70;;;;;;5040409;28;20049;-67
2021/07/29 07:48:42;;;;;;;3.00;2.53;;;24.20;96.00;;;;;;5032633;28;20151;-67
2021/07/29 07:51:08;;;;;;;2.00;1.45;;;24.60;95.80;;;;;;5032575;28;20046;-67
2021/07/29 07:53:35;;;;;;;2.58;2.33;;;24.80;95.30;;;;;;5049319;28;20494;-69
2021/07/29 07:56:05;;;;;;;2.38;2.10;;;24.60;95.10;;;;;;5045146;28;20048;-67
2021/07/29 07:58:32;;;;;;;3.17;2.10;;;24.60;94.90;;;;;;5050311;28;20103;-66
2021/07/29 08:00:59;;;;;;;3.28;1.95;;;24.70;95.40;;;;;;5051785;28;20045;-67
2021/07/29 08:03:25;;;;;;;4.60;2.13;;;24.40;93.80;;;;;;5051340;28;20052;-66
2021/07/29 08:05:52;;;;;;;3.70;1.85;;;24.30;94.10;;;;;;5044246;28;20057;-66
2021/07/29 08:08:18;;;;;;;2.65;1.85;;;24.60;92.00;;;;;;5050937;28;20460;-68
2021/07/29 08:10:49;;;;;;;3.90;2.13;;;24.70;91.80;;;;;;5051648;28;20045;-67
2021/07/29 08:13:17;;;;;;;1.58;1.38;;;24.80;91.10;;;;;;5052062;28;20048;-66
2021/07/29 08:15:44;;;;;;;2.38;1.90;;;24.90;89.60;;;;;;5051442;28;20048;-67
2021/07/29 08:18:11;;;;;;;2.70;2.13;;;25.10;90.70;;;;;;5045563;28;20046;-68
2021/07/29 08:20:40;;;;;;;2.28;1.98;;;25.40;87.80;;;;;;5049521;28;20053;-67
2021/07/29 08:23:07;;;;;;;2.83;2.00;;;24.90;87.30;;;;;;5050977;28;20110;-66
2021/07/29 08:25:35;;;;;;;3.20;2.13;;;24.60;90.10;;;;;;5051824;28;20523;-68
2021/07/29 08:28:02;;;;;;;3.03;2.55;;;24.60;89.50;;;;;;5051638;28;20057;-66
2021/07/29 08:30:30;;;;;;;2.55;1.58;;;24.60;89.90;;;;;;5050964;28;20068;-67
2021/07/29 08:32:57;;;;;;;1.65;1.55;;;25.00;86.80;;;;;;5044079;28;20053;-67
2021/07/29 08:35:23;;;;;;;2.60;1.73;;;25.60;85.40;;;;;;5031779;28;20045;-69
2021/07/29 08:37:50;;;;;;;3.90;2.10;;;25.80;85.50;;;;;;5031818;28;20041;-68
2021/07/29 08:40:18;;;;;;;2.10;2.00;;;25.80;85.30;;;;;;5031244;28;20107;-66
2021/07/29 08:42:45;;;;;;;2.42;2.08;;;26.00;86.50;;;;;;5031677;28;20140;-67
2021/07/29 08:45:12;;;;;;;5.05;1.85;;;25.40;83.10;;;;;;5032689;28;20041;-69
2021/07/29 08:47:43;;;;;;;2.78;1.67;;;24.30;87.90;;;;;;5042854;28;20045;-65
2021/07/29 08:50:11;;;;;;;2.80;1.55;;;24.10;87.90;;;;;;5050816;28;20163;-71
2021/07/29 08:52:38;;;;;;;5.60;3.00;;;24.60;87.40;;;;;;5049908;28;20049;-68
2021/07/29 08:55:06;;;;;;;4.18;2.13;;;24.30;87.40;;;;;;5050624;28;20053;-67
2021/07/29 08:57:33;;;;;;;3.80;2.10;;;24.80;88.00;;;;;;5050938;28;20048;-66
2021/07/29 09:00:01;;;;;;;3.88;2.15;;;25.00;87.70;;;;;;5036192;28;20037;-65
2021/07/29 09:02:29;;;;;;;2.00;1.80;;;24.80;86.80;;;;;;5031167;28;20063;-65
2021/07/29 09:05:15;;;;;;;2.67;1.85;;;24.10;89.90;;;;;;5031580;28;20050;-65
2021/07/29 09:07:43;;;;;;;3.47;2.28;;;23.50;91.60;;;;;;5033335;28;20045;-66
2021/07/29 09:10:22;;;;;;;3.50;2.22;;;23.20;91.30;;;;;;5050752;28;20049;-66
2021/07/29 09:13:07;;;;;;;2.90;2.00;;;23.10;92.40;;;;;;5035670;28;20119;-67
2021/07/29 09:15:34;;;;;;;7.28;4.75;;;23.10;92.60;;;;;;5031534;28;20176;-69
2021/07/29 09:18:01;;;;;;;2.70;1.70;;;22.90;92.70;;;;;;5031167;28;20448;-70
2021/07/29 09:20:29;;;;;;;6.88;4.82;;;22.70;92.50;;;;;;5030488;28;20081;-70
2021/07/29 09:22:56;;;;;;;3.97;2.58;;;22.50;93.80;;;;;;5031126;28;20065;-73
2021/07/29 09:25:26;;;;;;;5.72;2.25;;;22.50;93.60;;;;;;5033849;28;20508;-72
2021/07/29 09:27:53;;;;;;;5.43;2.13;;;22.40;93.50;;;;;;5050336;28;20051;-67
2021/07/29 09:30:22;;;;;;;4.18;2.60;;;22.50;93.00;;;;;;5054546;28;20052;-66
2021/07/29 09:33:00;;;;;;;1.83;1.58;;;22.40;93.50;;;;;;5047951;28;20050;-70
2021/07/29 09:35:32;;;;;;;3.03;2.25;;;22.30;93.50;;;;;;5041371;28;20144;-67
2021/07/29 09:38:00;;;;;;;3.08;2.63;;;22.20;94.00;;;;;;5055072;28;20563;-68
2021/07/29 09:40:27;;;;;;;4.25;3.83;;;22.10;94.60;;;;;;5054153;28;20045;-70
2021/07/29 09:43:09;;;;;;;2.35;2.15;;;22.20;95.10;;;;;;5034864;28;20049;-67
2021/07/29 09:45:36;;;;;;;3.20;2.20;;;22.30;94.50;;;;;;5038731;28;20041;-68
2021/07/29 09:48:06;;;;;;;3.17;2.42;;;22.40;94.90;;;;;;5054675;28;20509;-68
2021/07/29 09:50:34;;;;;;;3.95;2.55;;;22.30;95.10;;;;;;5049123;28;20493;-68
2021/07/29 09:53:02;;;;;;;2.67;2.33;;;22.10;95.50;;;;;;5052059;28;20053;-70
2021/07/29 09:55:30;;;;;;;3.88;3.47;;;22.10;95.30;;;;;;5043326;28;20061;-70
2021/07/29 09:57:56;;;;;;;4.55;2.13;;;22.10;96.20;;;;;;5034570;28;20049;-67
2021/07/29 10:00:24;;;;;;;2.33;2.13;;;22.10;95.30;;;;;;5045149;28;20045;-71
2021/07/29 10:02:55;;;;;;;2.38;2.20;;;22.20;95.50;;;;;;5055189;28;20053;-71
2021/07/29 10:05:28;;;;;;;2.15;1.67;;;23.30;95.30;;;;;;5051175;28;20080;-71
2021/07/29 10:08:01;;;;;;;2.45;2.25;;;23.70;92.70;;;;;;5035519;28;20041;-71
2021/07/29 10:10:30;;;;;;;3.15;2.10;;;24.40;92.60;;;;;;5034661;28;20045;-71
2021/07/29 10:12:58;;;;;;;2.72;2.47;;;24.40;91.90;;;;;;5050748;28;20425;-71
2021/07/29 10:15:41;;;;;;;4.40;2.05;;;24.50;91.00;;;;;;5054288;28;20155;-72
2021/07/29 10:18:10;;;;;;;2.50;2.25;;;25.40;89.20;;;;;;5055437;28;20052;-70
2021/07/29 10:20:39;;;;;;;3.92;2.65;;;25.50;85.60;;;;;;5044800;28;20057;-71
2021/07/29 10:23:30;;;;;;;4.70;2.72;;;24.80;87.40;;;;;;5042546;28;20501;-72
2021/07/29 10:26:06;;;;;;;2.50;2.28;;;25.30;87.20;;;;;;5053747;28;20136;-71
2021/07/29 10:28:41;;;;;;;4.55;2.67;;;25.60;84.50;;;;;;5033687;28;20506;-72
2021/07/29 10:31:10;;;;;;;1.95;1.80;;;24.80;85.30;;;;;;5053740;28;20056;-71
2021/07/29 10:33:36;;;;;;;3.05;1.92;;;24.40;85.30;;;;;;5054170;28;20394;-71
2021/07/29 10:36:04;;;;;;;2.38;1.90;;;24.10;87.10;;;;;;5038735;28;20568;-71
2021/07/29 10:38:51;;;;;;;3.90;2.15;;;23.60;88.00;;;;;;5033182;28;20527;-71
2021/07/29 10:41:40;;;;;;;4.15;1.92;;;23.60;86.00;;;;;;5034144;28;20045;-71
2021/07/29 10:44:10;;;;;;;4.10;2.33;;;23.50;86.40;;;;;;5038127;28;20511;-73
2021/07/29 10:47:01;;;;;;;3.47;2.10;;;23.60;87.90;;;;;;5047885;28;20412;-73
2021/07/29 10:50:14;;;;;;;2.58;2.08;;;23.50;88.50;;;;;;5037792;28;20088;-72
2021/07/29 10:52:44;;;;;;;3.55;2.08;;;23.30;89.20;;;;;;5011222;28;20096;-71
2021/07/29 10:55:12;;;;;;;3.20;2.70;;;23.20;90.10;;;;;;5034793;28;20450;-71
2021/07/29 10:57:39;;;;;;;3.17;2.50;;;23.20;90.50;;;;;;5034534;28;20494;-71
2021/07/29 11:00:08;;;;;;;2.40;2.15;;;24.10;90.70;;;;;;5033121;28;20417;-72
2021/07/29 11:02:41;;;;;;;3.50;2.67;;;25.20;80.90;;;;;;5033341;28;20099;-72
2021/07/29 11:05:09;;;;;;;6.00;2.08;;;24.80;80.20;;;;;;5033781;28;20042;-75
2021/07/29 11:07:41;;;;;;;2.97;1.75;;;25.00;81.10;;;;;;5033246;28;20446;-72
2021/07/29 11:10:10;;;;;;;2.42;2.22;;;25.00;79.80;;;;;;5040815;28;20049;-70
2021/07/29 11:12:39;;;;;;;4.28;2.20;;;25.20;77.70;;;;;;5053855;28;20498;-71
2021/07/29 11:15:07;;;;;;;2.70;1.80;;;26.20;74.70;;;;;;5045438;28;20045;-74
2021/07/29 11:17:34;;;;;;;2.80;2.20;;;25.90;73.60;;;;;;5037551;28;20046;-74
2021/07/29 11:20:01;;;;;;;2.70;2.25;;;25.30;74.50;;;;;;5032557;28;20409;-73
2021/07/29 11:22:28;;;;;;;2.63;2.33;;;24.50;76.80;;;;;;5041929;28;20132;-73
2021/07/29 11:24:55;;;;;;;3.72;1.92;;;24.10;78.60;;;;;;5052630;28;20056;-74
2021/07/29 11:27:31;;;;;;;2.03;1.67;;;23.80;76.80;;;;;;5053046;28;20444;-76
2021/07/29 11:30:01;;;;;;;2.58;1.65;;;23.80;74.80;;;;;;5050958;28;20052;-72
2021/07/29 11:32:38;;;;;;;2.03;1.80;;;23.60;73.20;;;;;;5052635;28;20483;-70
2021/07/29 11:35:06;;;;;;;2.45;2.00;;;23.90;73.90;;;;;;5046895;28;20048;-74
2021/07/29 11:37:35;;;;;;;2.13;1.92;;;24.20;72.20;;;;;;5036186;28;20037;-75
2021/07/29 11:40:02;;;;;;;1.65;1.55;;;25.10;70.90;;;;;;5033121;28;20132;-72
2021/07/29 11:42:36;;;;;;;2.08;1.58;;;26.10;66.50;;;;;;5034838;28;20449;-75
2021/07/29 11:45:06;;;;;;;1.83;1.52;;;26.40;66.20;;;;;;5039602;28;20044;-73
2021/07/29 11:47:40;;;;;;;1.85;1.75;;;26.50;64.60;;;;;;5047680;28;20107;-74
2021/07/29 11:50:08;;;;;;;5.22;1.88;;;27.00;66.40;;;;;;5034990;28;20405;-74
2021/07/29 11:52:35;;;;;;;2.15;1.98;;;27.10;64.50;;;;;;5033447;28;20456;-73
2021/07/29 11:55:14;;;;;;;4.68;2.05;;;27.60;57.90;;;;;;5041848;28;20041;-75
2021/07/29 11:57:41;;;;;;;4.25;2.30;;;26.70;58.20;;;;;;5034150;28;20065;-76
2021/07/29 12:00:14;;;;;;;3.10;1.85;;;27.40;58.30;;;;;;5036605;28;20076;-72
2021/07/29 12:02:41;;;;;;;3.65;2.15;;;27.60;57.20;;;;;;5043948;28;20144;-73
2021/07/29 12:05:10;;;;;;;5.03;2.47;;;28.50;56.10;;;;;;5033527;28;20044;-72
2021/07/29 12:07:40;;;;;;;3.20;1.25;;;27.90;56.30;;;;;;5040365;28;20037;-72
2021/07/29 12:10:08;;;;;;;2.55;1.65;;;27.60;54.10;;;;;;5047421;28;20119;-73
2021/07/29 12:12:36;;;;;;;2.80;1.67;;;27.00;54.80;;;;;;5036472;28;20086;-76
2021/07/29 12:15:03;;;;;;;2.70;1.23;;;26.80;54.90;;;;;;5037036;28;20057;-71
2021/07/29 12:17:31;;;;;;;3.63;2.53;;;26.80;55.50;;;;;;5043009;28;20049;-68
2021/07/29 12:19:59;;;;;;;1.80;1.50;;;26.00;56.90;;;;;;5035940;28;20041;-74
2021/07/29 12:22:27;;;;;;;2.20;1.80;;;25.90;58.70;;;;;;5041978;28;20136;-73
2021/07/29 12:24:55;;;;;;;3.47;1.80;;;26.10;58.10;;;;;;5043811;28;20041;-71
2021/07/29 12:27:22;;;;;;;3.35;1.92;;;26.00;59.30;;;;;;5052932;28;20076;-72
2021/07/29 12:29:49;;;;;;;2.28;1.65;;;26.60;57.50;;;;;;5052825;28;20045;-71
2021/07/29 12:32:24;;;;;;;2.03;1.55;;;27.50;57.00;;;;;;5053332;28;20053;-72
2021/07/29 12:34:53;;;;;;;2.38;1.48;;;28.10;55.90;;;;;;5053488;28;20053;-71
2021/07/29 12:37:30;;;;;;;2.90;1.67;;;28.70;56.00;;;;;;5052819;28;20524;-72
2021/07/29 12:39:56;;;;;;;2.13;1.90;;;28.10;54.10;;;;;;5034618;28;20115;-72
2021/07/29 12:42:24;;;;;;;3.22;2.17;;;28.00;55.90;;;;;;5034392;28;20049;-71
2021/07/29 12:44:58;;;;;;;4.55;2.47;;;28.70;54.30;;;;;;5035590;28;20042;-71
2021/07/29 12:47:25;;;;;;;4.80;2.20;;;29.20;55.40;;;;;;5033905;28;20096;-71
2021/07/29 12:49:54;;;;;;;1.65;1.55;;;27.90;54.90;;;;;;5031699;28;20095;-71
2021/07/29 12:52:21;;;;;;;3.38;2.15;;;27.30;54.90;;;;;;5032712;28;20119;-71
2021/07/29 12:54:59;;;;;;;2.40;2.13;;;26.80;55.90;;;;;;5032933;28;20046;-70
2021/07/29 12:57:26;;;;;;;2.03;1.83;;;26.90;56.30;;;;;;5032073;28;20136;-72